createdAt,value
2019-04-07T00:00:47.659Z,26.20
2019-04-07T00:01:47.787Z,25.30
2019-04-07T00:02:47.571Z,25.40
2019-04-07T00:03:47.300Z,25.30
2019-04-07T00:04:47.673Z,25.20
2019-04-07T00:05:47.280Z,24.20
2019-04-07T00:06:47.687Z,25.00
2019-04-07T00:07:47.287Z,25.20
2019-04-07T00:08:47.525Z,23.30
2019-04-07T00:09:47.226Z,23.80
2019-04-07T00:10:47.212Z,23.90
2019-04-07T00:11:47.203Z,24.40
2019-04-07T00:12:47.652Z,25.00
2019-04-07T00:13:47.175Z,25.50
2019-04-07T00:14:47.164Z,24.20
2019-04-07T00:15:47.151Z,25.20
2019-04-07T00:16:47.139Z,25.80
2019-04-07T00:17:47.700Z,24.60
2019-04-07T00:18:47.113Z,25.60
2019-04-07T00:19:47.100Z,25.70
2019-04-07T00:20:47.362Z,26.40
2019-04-07T00:21:47.076Z,24.50
2019-04-07T00:22:47.092Z,25.20
2019-04-07T00:23:47.049Z,25.60
2019-04-07T00:24:47.039Z,25.40
2019-04-07T00:25:47.028Z,25.40
2019-04-07T00:26:47.486Z,26.30
2019-04-07T00:27:47.002Z,25.60
2019-04-07T00:28:46.989Z,25.20
2019-04-07T00:29:46.997Z,25.30
2019-04-07T00:30:46.965Z,25.80
2019-04-07T00:31:46.951Z,25.20
2019-04-07T00:32:46.940Z,24.50
2019-04-07T00:33:47.302Z,25.60
2019-04-07T00:34:46.914Z,24.20
2019-04-07T00:35:46.915Z,24.80
2019-04-07T00:36:46.892Z,24.30
2019-04-07T00:37:46.878Z,24.40
2019-04-07T00:38:47.070Z,25.00
2019-04-07T00:39:46.901Z,26.20
2019-04-07T00:40:46.839Z,24.70
2019-04-07T00:41:47.488Z,25.80
2019-04-07T00:42:46.817Z,25.50
2019-04-07T00:43:47.173Z,24.10
2019-04-07T00:44:46.789Z,25.30
2019-04-07T00:45:47.021Z,25.00
2019-04-07T00:46:46.765Z,24.60
2019-04-07T00:47:46.752Z,26.10
2019-04-07T00:48:47.461Z,25.30
2019-04-07T00:49:46.728Z,24.50
2019-04-07T00:50:46.981Z,25.40
2019-04-07T00:51:46.714Z,26.00
2019-04-07T00:52:46.690Z,26.50
2019-04-07T00:53:46.679Z,26.70
2019-04-07T00:54:46.983Z,26.10
2019-04-07T00:55:46.653Z,24.70
2019-04-07T00:56:46.639Z,25.60
2019-04-07T00:57:47.115Z,24.90
2019-04-07T00:58:47.304Z,26.00
2019-04-07T00:59:47.300Z,25.30
2019-04-07T01:00:46.589Z,25.40
2019-04-07T01:01:47.181Z,26.30
2019-04-07T01:02:46.627Z,25.10
2019-04-07T01:03:46.550Z,24.20
2019-04-07T01:04:47.188Z,25.90
2019-04-07T01:05:46.769Z,26.10
2019-04-07T01:06:47.201Z,26.90
2019-04-07T01:07:46.503Z,25.30
2019-04-07T01:08:46.487Z,26.70
2019-04-07T01:09:46.476Z,25.80
2019-04-07T01:10:47.007Z,26.80
2019-04-07T01:11:46.449Z,26.00
2019-04-07T01:12:46.440Z,28.00
2019-04-07T01:13:46.440Z,28.10
2019-04-07T01:14:46.701Z,27.90
2019-04-07T01:15:46.398Z,27.10
2019-04-07T01:16:47.142Z,26.20
2019-04-07T01:17:46.565Z,26.90
2019-04-07T01:18:46.858Z,27.20
2019-04-07T01:19:46.349Z,27.20
2019-04-07T01:20:46.851Z,27.10
2019-04-07T01:21:46.886Z,25.10
2019-04-07T01:22:46.312Z,26.10
2019-04-07T01:23:46.869Z,26.40
2019-04-07T01:24:46.285Z,27.10
2019-04-07T01:25:46.645Z,26.10
2019-04-07T01:26:46.265Z,27.30
2019-04-07T01:27:46.643Z,26.60
2019-04-07T01:28:46.237Z,25.10
2019-04-07T01:29:46.374Z,25.60
2019-04-07T01:30:46.770Z,26.20
2019-04-07T01:31:46.200Z,25.80
2019-04-07T01:32:46.731Z,26.90
2019-04-07T01:33:46.850Z,23.90
2019-04-07T01:34:46.867Z,25.90
2019-04-07T01:35:48.697Z,26.00
2019-04-07T01:36:46.137Z,25.80
2019-04-07T01:37:46.124Z,23.90
2019-04-07T01:38:46.124Z,24.90
2019-04-07T01:39:46.098Z,26.60
2019-04-07T01:40:46.645Z,27.10
2019-04-07T01:41:46.229Z,24.90
2019-04-07T01:42:46.059Z,24.80
2019-04-07T01:43:46.049Z,25.20
2019-04-07T01:44:46.145Z,27.00
2019-04-07T01:45:46.563Z,26.70
2019-04-07T01:46:46.012Z,27.70
2019-04-07T01:47:45.997Z,26.50
2019-04-07T01:48:45.984Z,26.10
2019-04-07T01:49:46.595Z,27.20
2019-04-07T01:50:46.662Z,26.40
2019-04-07T01:51:46.492Z,26.30
2019-04-07T01:52:45.938Z,25.30
2019-04-07T01:53:46.584Z,25.40
2019-04-07T01:54:45.915Z,26.40
2019-04-07T01:55:46.384Z,27.30
2019-04-07T01:56:46.491Z,27.40
2019-04-07T01:57:46.507Z,27.70
2019-04-07T01:58:46.028Z,26.60
2019-04-07T01:59:45.847Z,26.80
2019-04-07T02:00:45.835Z,27.70
2019-04-07T02:01:45.947Z,27.40
2019-04-07T02:02:45.819Z,25.00
2019-04-07T02:03:46.285Z,26.30
2019-04-07T02:04:45.788Z,24.80
2019-04-07T02:05:57.670Z,25.30
2019-04-07T02:06:46.357Z,26.80
2019-04-07T02:07:45.804Z,26.30
2019-04-07T02:08:46.372Z,25.70
2019-04-07T02:09:45.725Z,24.90
2019-04-07T02:10:46.014Z,27.00
2019-04-07T02:11:46.266Z,26.20
2019-04-07T02:12:45.687Z,27.00
2019-04-07T02:13:45.677Z,25.10
2019-04-07T02:14:45.663Z,27.20
2019-04-07T02:15:45.650Z,26.90
2019-04-07T02:16:45.644Z,27.60
2019-04-07T02:17:45.632Z,28.30
2019-04-07T02:18:45.617Z,27.00
2019-04-07T02:19:46.015Z,27.10
2019-04-07T02:20:45.591Z,26.10
2019-04-07T02:21:45.574Z,28.30
2019-04-07T02:22:45.565Z,26.40
2019-04-07T02:23:45.551Z,25.90
2019-04-07T02:24:45.542Z,27.80
2019-04-07T02:25:45.536Z,25.90
2019-04-07T02:26:45.594Z,24.80
2019-04-07T02:27:45.886Z,26.70
2019-04-07T02:28:46.205Z,26.80
2019-04-07T02:29:45.479Z,28.70
2019-04-07T02:30:45.960Z,26.60
2019-04-07T02:31:46.234Z,27.30
2019-04-07T02:32:46.183Z,26.90
2019-04-07T02:33:45.763Z,27.10
2019-04-07T02:34:45.569Z,27.30
2019-04-07T02:35:46.541Z,26.80
2019-04-07T02:36:46.534Z,27.80
2019-04-07T02:37:46.001Z,25.70
2019-04-07T02:38:45.648Z,26.70
2019-04-07T02:39:46.332Z,26.20
2019-04-07T02:40:45.947Z,26.70
2019-04-07T02:41:46.501Z,27.70
2019-04-07T02:42:46.140Z,26.60
2019-04-07T02:43:45.302Z,28.70
2019-04-07T02:44:45.519Z,26.90
2019-04-07T02:45:45.325Z,25.40
2019-04-07T02:46:46.247Z,26.60
2019-04-07T02:47:45.253Z,26.90
2019-04-07T02:48:45.239Z,25.70
2019-04-07T02:49:45.725Z,26.40
2019-04-07T02:50:45.341Z,25.40
2019-04-07T02:51:45.512Z,24.80
2019-04-07T02:52:45.334Z,25.50
2019-04-07T02:53:45.462Z,26.30
2019-04-07T02:54:46.317Z,25.50
2019-04-07T02:55:45.333Z,23.90
2019-04-07T02:56:46.131Z,25.30
2019-04-07T02:57:45.133Z,24.60
2019-04-07T02:58:45.117Z,24.30
2019-04-07T02:59:46.259Z,23.50
2019-04-07T03:00:45.102Z,24.30
2019-04-07T03:01:45.428Z,23.60
2019-04-07T03:02:45.661Z,25.40
2019-04-07T03:03:46.360Z,24.90
2019-04-07T03:04:46.004Z,24.30
2019-04-07T03:05:45.576Z,24.40
2019-04-07T03:06:50.017Z,25.10
2019-04-07T03:07:45.008Z,24.30
2019-04-07T03:08:45.346Z,24.90
2019-04-07T03:09:44.985Z,24.90
2019-04-07T03:10:44.970Z,24.10
2019-04-07T03:11:44.955Z,24.40
2019-04-07T03:12:45.427Z,23.90
2019-04-07T03:13:45.208Z,25.10
2019-04-07T03:14:45.630Z,25.60
2019-04-07T03:15:44.911Z,23.90
2019-04-07T03:16:44.893Z,25.80
2019-04-07T03:17:45.810Z,23.60
2019-04-07T03:18:44.873Z,24.10
2019-04-07T03:19:45.290Z,24.10
2019-04-07T03:20:45.476Z,23.70
2019-04-07T03:21:45.752Z,22.50
2019-04-07T03:22:44.821Z,22.10
2019-04-07T03:23:45.695Z,21.50
2019-04-07T03:24:44.796Z,20.60
2019-04-07T03:25:45.194Z,20.30
2019-04-07T03:26:44.790Z,21.10
2019-04-07T03:27:44.755Z,21.80
2019-04-07T03:28:44.747Z,22.50
2019-04-07T03:29:45.278Z,23.40
2019-04-07T03:30:45.391Z,22.70
2019-04-07T03:31:46.490Z,23.60
2019-04-07T03:32:46.773Z,24.00
2019-04-07T03:33:48.200Z,21.70
2019-04-07T03:34:45.406Z,18.10
2019-04-07T03:35:46.097Z,18.40
2019-04-07T03:37:12.664Z,16.00
2019-04-07T03:37:47.432Z,17.40
2019-04-07T03:38:44.624Z,16.80
2019-04-07T03:39:44.619Z,17.00
2019-04-07T03:40:44.597Z,18.70
2019-04-07T03:41:44.586Z,18.90
2019-04-07T03:42:44.577Z,19.40
2019-04-07T03:43:44.561Z,19.00
2019-04-07T03:44:44.876Z,19.70
2019-04-07T03:45:45.483Z,18.30
2019-04-07T03:46:45.507Z,18.00
2019-04-07T03:47:44.515Z,18.90
2019-04-07T03:48:44.599Z,19.50
2019-04-07T03:49:45.641Z,20.50
2019-04-07T03:50:44.544Z,22.00
2019-04-07T03:51:44.463Z,22.40
2019-04-07T03:52:44.952Z,17.10
2019-04-07T03:53:45.651Z,18.10
2019-04-07T03:54:45.126Z,13.90
2019-04-07T03:55:44.438Z,15.40
2019-04-07T03:56:44.405Z,15.10
2019-04-07T03:57:44.485Z,16.40
2019-04-07T03:58:44.381Z,14.70
2019-04-07T03:59:44.648Z,13.40
2019-04-07T04:00:44.363Z,14.50
2019-04-07T04:01:45.412Z,14.30
2019-04-07T04:02:44.497Z,13.00
2019-04-07T04:03:44.317Z,12.00
2019-04-07T04:04:44.305Z,12.20
2019-04-07T04:05:44.293Z,12.30
2019-04-07T04:06:44.289Z,12.30
2019-04-07T04:07:44.324Z,12.30
2019-04-07T04:08:44.277Z,12.40
2019-04-07T04:09:45.465Z,12.80
2019-04-07T04:10:44.907Z,12.60
2019-04-07T04:11:45.167Z,12.00
2019-04-07T04:12:44.219Z,12.50
2019-04-07T04:13:44.336Z,11.80
2019-04-07T04:14:45.155Z,13.60
2019-04-07T04:15:44.686Z,15.80
2019-04-07T04:16:44.494Z,16.40
2019-04-07T04:17:44.149Z,16.90
2019-04-07T04:18:44.725Z,18.30
2019-04-07T04:19:44.142Z,17.30
2019-04-07T04:20:44.412Z,16.40
2019-04-07T04:21:44.472Z,15.70
2019-04-07T04:22:44.366Z,16.00
2019-04-07T04:23:44.698Z,15.80
2019-04-07T04:24:44.063Z,16.30
2019-04-07T04:25:45.430Z,13.90
2019-04-07T04:26:44.192Z,13.80
2019-04-07T04:27:44.264Z,13.20
2019-04-07T04:28:44.328Z,13.90
2019-04-07T04:29:44.906Z,14.90
2019-04-07T04:30:44.190Z,16.30
2019-04-07T04:31:43.984Z,16.30
2019-04-07T04:32:43.968Z,16.40
2019-04-07T04:33:44.331Z,17.60
2019-04-07T04:34:43.941Z,17.70
2019-04-07T04:35:44.190Z,17.40
2019-04-07T04:36:44.679Z,17.30
2019-04-07T04:37:48.824Z,17.00
2019-04-07T04:38:44.119Z,18.00
2019-04-07T04:39:44.595Z,16.40
2019-04-07T04:40:44.103Z,18.40
2019-04-07T04:41:44.672Z,18.10
2019-04-07T04:42:44.362Z,18.30
2019-04-07T04:43:43.833Z,21.10
2019-04-07T04:44:44.371Z,19.70
2019-04-07T04:45:43.995Z,19.50
2019-04-07T04:46:43.798Z,20.20
2019-04-07T04:47:43.790Z,20.60
2019-04-07T04:48:43.779Z,20.50
2019-04-07T04:49:44.772Z,20.30
2019-04-07T04:50:44.064Z,20.10
2019-04-07T04:51:44.406Z,21.10
2019-04-07T04:52:45.431Z,21.40
2019-04-07T04:53:44.256Z,20.80
2019-04-07T04:54:43.720Z,20.30
2019-04-07T04:55:43.943Z,20.20
2019-04-07T04:56:43.677Z,21.10
2019-04-07T04:57:44.424Z,19.70
2019-04-07T04:58:44.357Z,20.80
2019-04-07T04:59:44.290Z,20.40
2019-04-07T05:00:44.543Z,20.70
2019-04-07T05:01:44.459Z,21.10
2019-04-07T05:02:44.429Z,21.30
2019-04-07T05:03:43.590Z,20.30
2019-04-07T05:04:43.876Z,21.40
2019-04-07T05:05:43.567Z,19.60
2019-04-07T05:06:43.663Z,21.40
2019-04-07T05:07:54.899Z,21.10
2019-04-07T05:08:44.367Z,19.40
2019-04-07T05:09:48.966Z,21.00
2019-04-07T05:10:43.979Z,19.90
2019-04-07T05:11:43.495Z,19.10
2019-04-07T05:12:43.497Z,22.00
2019-04-07T05:13:43.468Z,22.30
2019-04-07T05:14:43.457Z,20.30
2019-04-07T05:15:43.523Z,20.10
2019-04-07T05:16:43.605Z,20.30
2019-04-07T05:17:43.666Z,20.00
2019-04-07T05:18:43.676Z,19.90
2019-04-07T05:19:43.397Z,19.80
2019-04-07T05:20:44.317Z,21.30
2019-04-07T05:21:43.615Z,19.60
2019-04-07T05:22:43.423Z,19.80
2019-04-07T05:23:43.899Z,19.90
2019-04-07T05:24:43.334Z,19.20
2019-04-07T05:25:43.805Z,19.90
2019-04-07T05:26:43.310Z,20.80
2019-04-07T05:27:43.304Z,19.60
2019-04-07T05:28:43.884Z,21.00
2019-04-07T05:29:43.274Z,21.30
2019-04-07T05:30:43.547Z,20.20
2019-04-07T05:31:43.881Z,19.70
2019-04-07T05:32:43.265Z,18.40
2019-04-07T05:33:43.300Z,19.50
2019-04-07T05:34:43.219Z,19.20
2019-04-07T05:35:43.207Z,17.20
2019-04-07T05:36:43.335Z,19.40
2019-04-07T05:37:43.334Z,20.70
2019-04-07T05:38:43.164Z,19.50
2019-04-07T05:39:43.734Z,21.30
2019-04-07T05:40:43.328Z,18.90
2019-04-07T05:41:43.832Z,19.60
2019-04-07T05:42:43.351Z,18.90
2019-04-07T05:43:43.141Z,18.40
2019-04-07T05:44:43.233Z,17.80
2019-04-07T05:45:43.912Z,17.60
2019-04-07T05:46:43.476Z,18.90
2019-04-07T05:47:47.313Z,16.60
2019-04-07T05:48:43.614Z,15.40
2019-04-07T05:49:43.379Z,14.70
2019-04-07T05:50:43.031Z,13.70
2019-04-07T05:51:43.393Z,13.40
2019-04-07T05:52:43.316Z,14.20
2019-04-07T05:53:46.327Z,14.90
2019-04-07T05:54:42.974Z,14.70
2019-04-07T05:55:43.615Z,14.40
2019-04-07T05:56:42.949Z,13.80
2019-04-07T05:57:43.172Z,13.60
2019-04-07T05:58:43.848Z,12.70
2019-04-07T05:59:43.673Z,14.00
2019-04-07T06:00:45.746Z,13.70
2019-04-07T06:01:42.891Z,13.40
2019-04-07T06:02:42.989Z,12.70
2019-04-07T06:03:43.638Z,14.30
2019-04-07T06:04:42.866Z,14.10
2019-04-07T06:05:44.629Z,15.10
2019-04-07T06:06:42.831Z,16.00
2019-04-07T06:07:43.026Z,14.90
2019-04-07T06:08:42.809Z,15.30
2019-04-07T06:09:42.800Z,15.40
2019-04-07T06:10:42.787Z,15.60
2019-04-07T06:11:43.174Z,16.40
2019-04-07T06:12:46.364Z,16.10
2019-04-07T06:13:44.628Z,16.90
2019-04-07T06:14:44.463Z,16.30
2019-04-07T06:15:42.795Z,16.20
2019-04-07T06:16:43.458Z,15.50
2019-04-07T06:17:42.701Z,16.10
2019-04-07T06:18:43.313Z,16.10
2019-04-07T06:19:43.558Z,15.60
2019-04-07T06:20:45.143Z,16.10
2019-04-07T06:21:46.058Z,15.00
2019-04-07T06:22:42.644Z,14.40
2019-04-07T06:23:43.258Z,16.10
2019-04-07T06:24:42.621Z,16.50
2019-04-07T06:25:44.007Z,16.70
2019-04-07T06:26:47.650Z,16.80
2019-04-07T06:27:45.064Z,16.70
2019-04-07T06:28:42.575Z,15.10
2019-04-07T06:29:42.562Z,15.60
2019-04-07T06:30:42.850Z,15.10
2019-04-07T06:31:42.542Z,14.60
2019-04-07T06:32:43.970Z,15.20
2019-04-07T06:33:42.516Z,15.50
2019-04-07T06:34:43.556Z,13.70
2019-04-07T06:35:44.972Z,15.50
2019-04-07T06:36:43.120Z,15.30
2019-04-07T06:37:42.916Z,16.10
2019-04-07T06:38:46.481Z,14.80
2019-04-07T06:39:42.450Z,15.90
2019-04-07T06:40:42.437Z,16.80
2019-04-07T06:41:42.430Z,16.20
2019-04-07T06:42:43.999Z,16.10
2019-04-07T06:43:42.402Z,16.10
2019-04-07T06:44:42.391Z,15.30
2019-04-07T06:45:42.523Z,16.00
2019-04-07T06:46:42.449Z,16.30
2019-04-07T06:47:42.361Z,15.30
2019-04-07T06:48:42.345Z,16.60
2019-04-07T06:49:44.672Z,15.60
2019-04-07T06:50:49.445Z,16.30
2019-04-07T06:51:42.451Z,17.70
2019-04-07T06:52:42.307Z,17.80
2019-04-07T06:53:43.038Z,16.50
2019-04-07T06:54:42.336Z,16.30
2019-04-07T06:55:42.774Z,15.70
2019-04-07T06:56:42.258Z,16.70
2019-04-07T06:57:42.818Z,16.30
2019-04-07T06:58:42.911Z,17.40
2019-04-07T06:59:45.659Z,16.10
2019-04-07T07:00:42.224Z,15.50
2019-04-07T07:01:42.795Z,16.80
2019-04-07T07:02:43.777Z,15.50
2019-04-07T07:03:42.178Z,15.40
2019-04-07T07:04:44.049Z,15.50
2019-04-07T07:05:45.354Z,15.10
2019-04-07T07:06:42.270Z,12.10
2019-04-07T07:07:42.569Z,12.60
2019-04-07T07:08:45.950Z,14.10
2019-04-07T07:09:42.674Z,14.50
2019-04-07T07:10:42.958Z,14.10
2019-04-07T07:11:44.107Z,13.50
2019-04-07T07:12:42.188Z,10.40
2019-04-07T07:13:44.544Z,9.20
2019-04-07T07:14:44.931Z,9.80
2019-04-07T07:15:42.733Z,8.30
2019-04-07T07:16:44.521Z,8.10
2019-04-07T07:17:42.245Z,7.70
2019-04-07T07:18:42.026Z,8.30
2019-04-07T07:19:42.281Z,8.30
2019-04-07T07:20:42.690Z,8.20
2019-04-07T07:21:42.650Z,8.10
2019-04-07T07:22:45.592Z,7.20
2019-04-07T07:23:47.647Z,7.10
2019-04-07T07:24:42.720Z,6.80
2019-04-07T07:25:42.093Z,6.60
2019-04-07T07:26:41.948Z,6.50
2019-04-07T07:27:42.996Z,5.80
2019-04-07T07:28:43.290Z,5.00
2019-04-07T07:29:45.482Z,5.70
2019-04-07T07:30:42.693Z,6.30
2019-04-07T07:31:42.595Z,5.50
2019-04-07T07:32:41.888Z,6.00
2019-04-07T07:33:43.637Z,6.10
2019-04-07T07:34:42.463Z,6.10
2019-04-07T07:35:45.526Z,6.00
2019-04-07T07:36:41.851Z,5.20
2019-04-07T07:37:41.845Z,5.80
2019-04-07T07:38:54.439Z,5.30
2019-04-07T07:39:42.646Z,5.80
2019-04-07T07:40:42.559Z,5.90
2019-04-07T07:41:41.806Z,4.80
2019-04-07T07:42:42.090Z,5.00
2019-04-07T07:43:42.439Z,5.30
2019-04-07T07:44:41.862Z,4.60
2019-04-07T07:45:44.954Z,5.40
2019-04-07T07:46:42.170Z,5.70
2019-04-07T07:47:41.749Z,5.20
2019-04-07T07:48:42.085Z,4.90
2019-04-07T07:49:42.430Z,4.30
2019-04-07T07:50:41.912Z,4.80
2019-04-07T07:51:45.041Z,4.20
2019-04-07T07:52:41.706Z,4.50
2019-04-07T07:53:41.693Z,4.20
2019-04-07T07:54:42.151Z,4.20
2019-04-07T07:55:41.676Z,4.90
2019-04-07T07:56:47.399Z,4.30
2019-04-07T07:57:41.659Z,4.60
2019-04-07T07:58:41.644Z,4.40
2019-04-07T07:59:42.101Z,4.00
2019-04-07T08:00:43.345Z,3.70
2019-04-07T08:01:44.255Z,4.20
2019-04-07T08:02:41.607Z,3.70
2019-04-07T08:03:41.599Z,4.80
2019-04-07T08:04:42.314Z,4.40
2019-04-07T08:05:41.583Z,3.90
2019-04-07T08:06:41.572Z,3.90
2019-04-07T08:07:46.828Z,4.10
2019-04-07T08:08:45.175Z,4.00
2019-04-07T08:09:42.169Z,3.50
2019-04-07T08:10:41.535Z,3.20
2019-04-07T08:11:41.545Z,3.40
2019-04-07T08:12:42.166Z,3.30
2019-04-07T08:13:44.696Z,2.80
2019-04-07T08:14:41.503Z,2.90
2019-04-07T08:15:41.645Z,3.00
2019-04-07T08:16:41.479Z,3.10
2019-04-07T08:17:42.064Z,2.90
2019-04-07T08:18:44.633Z,2.50
2019-04-07T08:19:43.928Z,2.80
2019-04-07T08:20:44.987Z,2.40
2019-04-07T08:21:44.305Z,2.10
2019-04-07T08:22:43.585Z,2.00
2019-04-07T08:23:44.575Z,3.00
2019-04-07T08:24:41.579Z,2.70
2019-04-07T08:25:41.397Z,2.40
2019-04-07T08:26:41.391Z,2.60
2019-04-07T08:27:41.971Z,2.40
2019-04-07T08:28:41.374Z,2.80
2019-04-07T08:29:41.364Z,2.80
2019-04-07T08:30:44.181Z,2.60
2019-04-07T08:31:41.343Z,2.40
2019-04-07T08:32:42.083Z,2.70
2019-04-07T08:33:42.067Z,3.00
2019-04-07T08:34:41.550Z,2.30
2019-04-07T08:35:41.316Z,2.70
2019-04-07T08:36:43.523Z,2.40
2019-04-07T08:37:41.591Z,2.80
2019-04-07T08:38:41.286Z,2.80
2019-04-07T08:39:42.060Z,2.90
2019-04-07T08:40:41.268Z,3.10
2019-04-07T08:41:42.514Z,3.10
2019-04-07T08:42:41.838Z,2.80
2019-04-07T08:43:41.963Z,3.10
2019-04-07T08:44:41.933Z,2.90
2019-04-07T08:45:41.419Z,2.50
2019-04-07T08:46:43.127Z,2.70
2019-04-07T08:47:41.207Z,2.60
2019-04-07T08:48:41.200Z,2.50
2019-04-07T08:49:41.624Z,2.40
2019-04-07T08:50:42.037Z,2.30
2019-04-07T08:51:41.700Z,2.50
2019-04-07T08:52:43.016Z,2.70
2019-04-07T08:53:44.009Z,2.50
2019-04-07T08:54:41.147Z,2.30
2019-04-07T08:55:41.709Z,2.50
2019-04-07T08:56:41.134Z,2.60
2019-04-07T08:57:41.325Z,3.00
2019-04-07T08:58:41.384Z,3.10
2019-04-07T08:59:43.028Z,3.00
2019-04-07T09:00:41.664Z,3.30
2019-04-07T09:01:41.628Z,3.10
2019-04-07T09:02:41.604Z,2.30
2019-04-07T09:03:44.481Z,2.90
2019-04-07T09:04:41.273Z,2.60
2019-04-07T09:05:41.083Z,2.30
2019-04-07T09:06:41.051Z,2.80
2019-04-07T09:07:41.198Z,2.80
2019-04-07T09:08:41.073Z,3.00
2019-04-07T09:09:46.592Z,2.70
2019-04-07T09:10:41.019Z,3.10
2019-04-07T09:11:41.612Z,2.60
2019-04-07T09:12:41.822Z,3.10
2019-04-07T09:13:41.442Z,3.10
2019-04-07T09:14:41.897Z,2.60
2019-04-07T09:15:43.612Z,2.50
2019-04-07T09:16:41.619Z,2.90
2019-04-07T09:17:45.995Z,3.00
2019-04-07T09:18:51.648Z,2.90
2019-04-07T09:19:41.643Z,2.90
2019-04-07T09:20:43.592Z,3.20
2019-04-07T09:21:42.576Z,3.40
2019-04-07T09:22:40.914Z,3.20
2019-04-07T09:23:40.907Z,3.60
2019-04-07T09:24:41.576Z,3.30
2019-04-07T09:25:41.995Z,3.20
2019-04-07T09:26:42.826Z,3.20
2019-04-07T09:27:41.096Z,3.60
2019-04-07T09:28:40.866Z,3.10
2019-04-07T09:29:41.081Z,3.40
2019-04-07T09:30:40.959Z,3.70
2019-04-07T09:31:41.076Z,2.90
2019-04-07T09:32:41.600Z,3.00
2019-04-07T09:33:40.826Z,3.00
2019-04-07T09:34:41.425Z,3.10
2019-04-07T09:35:41.305Z,3.30
2019-04-07T09:36:40.815Z,3.70
2019-04-07T09:37:41.572Z,3.20
2019-04-07T09:38:40.907Z,3.40
2019-04-07T09:39:56.270Z,3.40
2019-04-07T09:40:40.773Z,3.50
2019-04-07T09:41:42.641Z,3.20
2019-04-07T09:42:41.203Z,3.40
2019-04-07T09:43:40.747Z,3.00
2019-04-07T09:44:40.739Z,2.90
2019-04-07T09:45:41.224Z,3.00
2019-04-07T09:46:44.780Z,2.80
2019-04-07T09:47:41.391Z,3.70
2019-04-07T09:48:41.425Z,3.60
2019-04-07T09:49:41.345Z,3.20
2019-04-07T09:50:40.838Z,3.10
2019-04-07T09:51:41.532Z,3.00
2019-04-07T09:52:43.572Z,2.90
2019-04-07T09:53:41.484Z,3.20
2019-04-07T09:54:40.946Z,3.00
2019-04-07T09:55:41.127Z,2.90
2019-04-07T09:56:40.746Z,3.10
2019-04-07T09:57:41.191Z,2.60
2019-04-07T09:58:42.758Z,3.20
2019-04-07T09:59:40.623Z,2.80
2019-04-07T10:00:41.027Z,3.20
2019-04-07T10:01:41.130Z,3.30
2019-04-07T10:02:40.601Z,3.30
2019-04-07T10:03:40.602Z,3.50
2019-04-07T10:04:42.428Z,3.50
2019-04-07T10:05:40.966Z,3.60
2019-04-07T10:06:40.567Z,3.50
2019-04-07T10:07:42.814Z,3.10
2019-04-07T10:08:40.623Z,3.20
2019-04-07T10:09:41.139Z,3.70
2019-04-07T10:10:40.553Z,3.60
2019-04-07T10:11:40.526Z,3.10
2019-04-07T10:12:40.778Z,3.40
2019-04-07T10:13:40.958Z,3.20
2019-04-07T10:14:40.532Z,3.70
2019-04-07T10:15:40.492Z,3.70
2019-04-07T10:16:40.700Z,3.30
2019-04-07T10:17:40.478Z,3.30
2019-04-07T10:18:40.472Z,3.80
2019-04-07T10:19:41.254Z,3.20
2019-04-07T10:20:40.793Z,3.40
2019-04-07T10:21:40.451Z,3.30
2019-04-07T10:22:40.439Z,3.70
2019-04-07T10:23:40.456Z,4.00
2019-04-07T10:24:40.492Z,3.50
2019-04-07T10:25:40.419Z,3.70
2019-04-07T10:26:40.408Z,3.30
2019-04-07T10:27:40.400Z,2.90
2019-04-07T10:28:41.884Z,3.00
2019-04-07T10:29:40.387Z,2.90
2019-04-07T10:30:40.380Z,3.10
2019-04-07T10:31:40.923Z,3.20
2019-04-07T10:32:40.654Z,3.20
2019-04-07T10:33:40.590Z,3.40
2019-04-07T10:34:40.783Z,3.00
2019-04-07T10:35:40.930Z,3.20
2019-04-07T10:36:40.747Z,3.40
2019-04-07T10:37:40.323Z,3.60
2019-04-07T10:38:40.319Z,3.40
2019-04-07T10:39:40.308Z,2.90
2019-04-07T10:40:41.150Z,3.00
2019-04-07T10:41:40.291Z,2.80
2019-04-07T10:42:41.193Z,3.00
2019-04-07T10:43:40.507Z,2.90
2019-04-07T10:44:40.269Z,2.80
2019-04-07T10:45:40.549Z,3.00
2019-04-07T10:46:40.269Z,3.00
2019-04-07T10:47:40.245Z,2.40
2019-04-07T10:48:40.468Z,2.90
2019-04-07T10:49:40.635Z,2.30
2019-04-07T10:50:40.529Z,3.00
2019-04-07T10:51:40.810Z,3.00
2019-04-07T10:52:40.201Z,3.00
2019-04-07T10:53:40.551Z,3.20
2019-04-07T10:54:40.474Z,3.00
2019-04-07T10:55:40.636Z,3.50
2019-04-07T10:56:40.173Z,2.70
2019-04-07T10:57:40.161Z,2.80
2019-04-07T10:58:40.320Z,2.50
2019-04-07T10:59:40.402Z,2.90
2019-04-07T11:00:44.724Z,2.70
2019-04-07T11:01:40.133Z,2.50
2019-04-07T11:02:40.439Z,2.90
2019-04-07T11:03:40.532Z,2.30
2019-04-07T11:04:40.857Z,2.60
2019-04-07T11:05:41.070Z,2.40
2019-04-07T11:06:40.623Z,2.70
2019-04-07T11:07:40.421Z,3.10
2019-04-07T11:08:40.076Z,2.80
2019-04-07T11:09:40.655Z,2.80
2019-04-07T11:10:40.126Z,3.00
2019-04-07T11:11:40.046Z,2.80
2019-04-07T11:12:40.037Z,3.00
2019-04-07T11:13:40.358Z,2.80
2019-04-07T11:14:40.027Z,3.10
2019-04-07T11:15:40.013Z,3.00
2019-04-07T11:16:40.010Z,2.70
2019-04-07T11:17:40.772Z,3.40
2019-04-07T11:18:40.309Z,3.10
2019-04-07T11:19:39.978Z,3.00
2019-04-07T11:20:39.970Z,2.60
2019-04-07T11:21:40.454Z,2.70
2019-04-07T11:22:40.191Z,2.60
2019-04-07T11:23:40.381Z,3.20
2019-04-07T11:24:39.936Z,2.90
2019-04-07T11:25:39.948Z,2.90
2019-04-07T11:26:40.360Z,2.70
2019-04-07T11:27:39.911Z,2.70
2019-04-07T11:28:40.083Z,2.80
2019-04-07T11:29:39.904Z,2.60
2019-04-07T11:30:39.928Z,2.20
2019-04-07T11:31:40.553Z,2.80
2019-04-07T11:32:40.274Z,2.50
2019-04-07T11:33:39.865Z,2.40
2019-04-07T11:34:40.186Z,2.50
2019-04-07T11:35:40.166Z,2.70
2019-04-07T11:36:40.674Z,2.50
2019-04-07T11:37:39.830Z,2.60
2019-04-07T11:38:40.474Z,2.50
2019-04-07T11:39:39.814Z,2.30
2019-04-07T11:40:45.936Z,2.50
2019-04-07T11:41:40.269Z,2.20
2019-04-07T11:42:40.436Z,2.00
2019-04-07T11:43:40.788Z,2.10
2019-04-07T11:44:40.107Z,2.20
2019-04-07T11:45:39.761Z,2.30
2019-04-07T11:46:40.107Z,2.70
2019-04-07T11:47:40.520Z,2.50
2019-04-07T11:48:40.435Z,2.40
2019-04-07T11:49:42.580Z,2.50
2019-04-07T11:50:39.725Z,2.20
2019-04-07T11:51:40.618Z,2.10
2019-04-07T11:52:39.843Z,2.00
2019-04-07T11:53:39.703Z,2.20
2019-04-07T11:54:39.690Z,1.80
2019-04-07T11:55:39.682Z,2.00
2019-04-07T11:56:40.172Z,2.20
2019-04-07T11:57:43.331Z,2.10
2019-04-07T11:58:39.832Z,2.30
2019-04-07T11:59:39.652Z,1.90
2019-04-07T12:00:41.541Z,2.00
2019-04-07T12:01:39.636Z,1.80
2019-04-07T12:02:41.529Z,2.10
2019-04-07T12:03:39.859Z,2.40
2019-04-07T12:04:40.399Z,2.20
2019-04-07T12:05:39.854Z,2.40
2019-04-07T12:06:39.733Z,2.40
2019-04-07T12:07:40.242Z,2.70
2019-04-07T12:08:40.420Z,2.30
2019-04-07T12:09:39.664Z,2.00
2019-04-07T12:10:39.876Z,2.10
2019-04-07T12:11:39.759Z,2.10
2019-04-07T12:12:39.681Z,2.30
2019-04-07T12:13:42.857Z,2.30
2019-04-07T12:14:39.538Z,2.60
2019-04-07T12:15:40.046Z,2.10
2019-04-07T12:16:40.208Z,2.30
2019-04-07T12:17:42.043Z,2.60
2019-04-07T12:18:39.685Z,2.50
2019-04-07T12:19:39.812Z,2.30
2019-04-07T12:20:39.494Z,2.50
2019-04-07T12:21:39.489Z,2.20
2019-04-07T12:22:44.057Z,2.60
2019-04-07T12:23:40.237Z,2.20
2019-04-07T12:24:39.466Z,2.00
2019-04-07T12:25:40.228Z,2.20
2019-04-07T12:26:42.090Z,2.70
2019-04-07T12:27:43.025Z,2.40
2019-04-07T12:28:40.063Z,2.10
2019-04-07T12:29:39.873Z,2.30
2019-04-07T12:30:39.421Z,2.30
2019-04-07T12:31:40.369Z,2.20
2019-04-07T12:32:40.219Z,2.30
2019-04-07T12:33:40.347Z,2.10
2019-04-07T12:34:41.767Z,2.40
2019-04-07T12:35:39.400Z,2.10
2019-04-07T12:36:39.820Z,2.20
2019-04-07T12:37:42.400Z,2.30
2019-04-07T12:38:43.254Z,2.20
2019-04-07T12:39:39.358Z,2.00
2019-04-07T12:40:39.350Z,2.30
2019-04-07T12:41:40.106Z,2.60
2019-04-07T12:42:40.227Z,2.40
2019-04-07T12:43:40.343Z,2.20
2019-04-07T12:44:39.901Z,2.00
2019-04-07T12:45:39.310Z,2.20
2019-04-07T12:46:39.307Z,2.20
2019-04-07T12:47:39.800Z,2.60
2019-04-07T12:48:40.345Z,2.40
2019-04-07T12:49:44.465Z,2.00
2019-04-07T12:50:39.270Z,2.30
2019-04-07T12:51:39.731Z,2.10
2019-04-07T12:52:39.258Z,2.30
2019-04-07T12:53:40.006Z,2.40
2019-04-07T12:54:41.383Z,2.30
2019-04-07T12:55:39.235Z,2.60
2019-04-07T12:56:39.228Z,2.80
2019-04-07T12:57:39.824Z,2.50
2019-04-07T12:58:42.394Z,2.10
2019-04-07T12:59:39.235Z,2.30
2019-04-07T13:00:53.037Z,2.40
2019-04-07T13:01:41.333Z,1.90
2019-04-07T13:02:39.267Z,2.30
2019-04-07T13:03:39.173Z,2.60
2019-04-07T13:04:39.676Z,2.60